createdAt,value
2022-10-06T00:00:50.965Z,100621.00
2022-10-06T00:03:34.406Z,100622.31
2022-10-06T00:06:04.736Z,100621.22
2022-10-06T00:08:33.454Z,100624.34
2022-10-06T00:11:00.889Z,100621.69
2022-10-06T00:13:29.344Z,100620.88
2022-10-06T00:15:56.673Z,100624.19
2022-10-06T00:18:24.408Z,100628.19
2022-10-06T00:20:56.200Z,100619.84
2022-10-06T00:23:25.471Z,100626.59
2022-10-06T00:25:53.290Z,100619.47
2022-10-06T00:28:21.020Z,100619.91
2022-10-06T00:30:48.444Z,100619.53
2022-10-06T00:33:17.724Z,100610.22
2022-10-06T00:35:45.331Z,100608.91
2022-10-06T00:38:15.940Z,100621.47
2022-10-06T00:40:46.266Z,100619.25
2022-10-06T00:43:55.816Z,100612.91
2022-10-06T00:46:34.412Z,100611.25
2022-10-06T00:49:05.179Z,100617.22
2022-10-06T00:51:34.453Z,100626.06
2022-10-06T00:54:02.853Z,100623.81
2022-10-06T00:56:31.566Z,100625.56
2022-10-06T00:58:59.063Z,100626.47
2022-10-06T01:01:27.106Z,100619.16
2022-10-06T01:03:59.519Z,100628.69
2022-10-06T01:06:27.114Z,100629.31
2022-10-06T01:08:54.701Z,100633.00
2022-10-06T01:11:22.081Z,100633.06
2022-10-06T01:13:51.230Z,100631.91
2022-10-06T01:16:20.640Z,100641.25
2022-10-06T01:18:48.174Z,100643.59
2022-10-06T01:21:23.984Z,100642.91
2022-10-06T01:23:52.899Z,100638.94
2022-10-06T01:26:23.817Z,100637.78
2022-10-06T01:28:51.699Z,100643.94
2022-10-06T01:31:19.487Z,100642.06
2022-10-06T01:33:51.457Z,100639.16
2022-10-06T01:36:19.069Z,100641.03
2022-10-06T01:38:46.384Z,100632.44
2022-10-06T01:41:15.583Z,100634.75
2022-10-06T01:43:42.882Z,100634.72
2022-10-06T01:46:10.055Z,100638.78
2022-10-06T01:48:38.018Z,100638.91
2022-10-06T01:51:05.679Z,100640.25
2022-10-06T01:53:33.450Z,100647.16
2022-10-06T01:56:01.199Z,100641.28
2022-10-06T01:58:30.335Z,100646.25
2022-10-06T02:00:58.235Z,100646.91
2022-10-06T02:03:26.128Z,100652.56
2022-10-06T02:05:56.370Z,100653.94
2022-10-06T02:08:23.742Z,100650.19
2022-10-06T02:10:51.711Z,100651.31
2022-10-06T02:13:19.059Z,100658.31
2022-10-06T02:15:47.874Z,100660.38
2022-10-06T02:18:15.637Z,100657.38
2022-10-06T02:20:43.953Z,100659.69
2022-10-06T02:23:11.235Z,100666.66
2022-10-06T02:25:38.734Z,100668.41
2022-10-06T02:28:06.062Z,100673.00
2022-10-06T02:30:33.601Z,100670.31
2022-10-06T02:33:02.776Z,100675.66
2022-10-06T02:35:30.122Z,100680.78
2022-10-06T02:37:57.416Z,100684.81
2022-10-06T02:40:24.948Z,100685.47
2022-10-06T02:42:52.291Z,100685.28
2022-10-06T02:45:19.532Z,100686.69
2022-10-06T02:47:47.472Z,100691.44
2022-10-06T02:50:16.363Z,100686.75
2022-10-06T02:52:43.562Z,100685.00
2022-10-06T02:55:11.760Z,100695.00
2022-10-06T02:57:39.797Z,100688.88
2022-10-06T03:00:08.597Z,100699.41
2022-10-06T03:02:36.627Z,100702.22
2022-10-06T03:05:04.669Z,100707.34
2022-10-06T03:07:33.639Z,100702.22
2022-10-06T03:10:01.424Z,100712.56
2022-10-06T03:12:28.825Z,100712.31
2022-10-06T03:14:56.172Z,100712.69
2022-10-06T03:17:23.795Z,100715.31
2022-10-06T03:19:51.127Z,100717.81
2022-10-06T03:22:18.707Z,100721.38
2022-10-06T03:24:48.441Z,100727.44
2022-10-06T03:27:18.122Z,100722.69
2022-10-06T03:29:45.351Z,100727.16
2022-10-06T03:32:13.111Z,100724.72
2022-10-06T03:34:40.602Z,100726.97
2022-10-06T03:37:08.128Z,100734.06
2022-10-06T03:39:35.677Z,100733.31
2022-10-06T03:42:04.480Z,100733.31
2022-10-06T03:44:31.739Z,100736.22
2022-10-06T03:46:59.496Z,100743.66
2022-10-06T03:49:27.031Z,100739.94
2022-10-06T03:51:54.589Z,100743.84
2022-10-06T03:54:22.321Z,100746.28
2022-10-06T03:56:49.554Z,100752.34
2022-10-06T03:59:18.304Z,100751.91
2022-10-06T04:01:48.333Z,100757.75
2022-10-06T04:04:15.626Z,100754.03
2022-10-06T04:06:44.122Z,100763.63
2022-10-06T04:09:15.605Z,100767.19
2022-10-06T04:11:44.879Z,100763.44
2022-10-06T04:14:14.299Z,100776.41
2022-10-06T04:16:44.635Z,100761.94
2022-10-06T04:19:14.305Z,100766.50
2022-10-06T04:21:43.548Z,100764.28
2022-10-06T04:24:11.580Z,100769.97
2022-10-06T04:26:40.954Z,100771.25
2022-10-06T04:29:08.624Z,100780.22
2022-10-06T04:31:37.629Z,100774.44
2022-10-06T04:34:07.559Z,100783.72
2022-10-06T04:36:37.179Z,100788.19
2022-10-06T04:39:05.864Z,100794.66
2022-10-06T04:41:35.132Z,100805.09
2022-10-06T04:44:04.115Z,100794.00
2022-10-06T04:46:47.922Z,100804.00
2022-10-06T04:49:20.388Z,100802.97
2022-10-06T04:51:48.793Z,100812.81
2022-10-06T04:54:15.996Z,100811.59
2022-10-06T04:56:43.717Z,100823.88
2022-10-06T04:59:11.169Z,100824.72
2022-10-06T05:01:38.362Z,100824.44
2022-10-06T05:04:06.689Z,100833.44
2022-10-06T05:06:37.117Z,100832.13
2022-10-06T05:09:07.070Z,100837.81
2022-10-06T05:11:34.916Z,100837.13
2022-10-06T05:14:02.128Z,100845.03
2022-10-06T05:16:31.070Z,100841.91
2022-10-06T05:18:59.176Z,100845.03
2022-10-06T05:21:28.208Z,100850.53
2022-10-06T05:23:57.344Z,100844.47
2022-10-06T05:26:27.080Z,100847.84
2022-10-06T05:28:54.843Z,100846.88
2022-10-06T05:31:24.372Z,100855.91
2022-10-06T05:33:51.723Z,100852.22
2022-10-06T05:36:21.095Z,100860.44
2022-10-06T05:38:48.960Z,100857.19
2022-10-06T05:41:19.329Z,100855.59
2022-10-06T05:43:47.514Z,100856.59
2022-10-06T05:46:23.249Z,100854.34
2022-10-06T05:48:52.182Z,100862.09
2022-10-06T05:51:21.046Z,100870.53
2022-10-06T05:53:49.088Z,100876.28
2022-10-06T05:56:21.037Z,100885.47
2022-10-06T05:58:49.842Z,100892.41
2022-10-06T06:01:19.892Z,100891.97
2022-10-06T06:03:49.115Z,100894.88
2022-10-06T06:06:21.541Z,100905.31
2022-10-06T06:08:52.307Z,100898.06
2022-10-06T06:11:21.559Z,100904.50
2022-10-06T06:13:49.220Z,100906.28
2022-10-06T06:16:16.552Z,100915.63
2022-10-06T06:18:44.650Z,100930.47
2022-10-06T06:21:11.836Z,100918.72
2022-10-06T06:23:40.988Z,100920.69
2022-10-06T06:26:10.874Z,100932.72
2022-10-06T06:28:39.529Z,100933.91
2022-10-06T06:31:08.589Z,100939.97
2022-10-06T06:33:37.329Z,100944.81
2022-10-06T06:36:11.583Z,100945.59
2022-10-06T06:38:39.496Z,100945.66
2022-10-06T06:41:14.422Z,100948.34
2022-10-06T06:43:43.772Z,100942.44
2022-10-06T06:46:11.605Z,100950.59
2022-10-06T06:48:39.514Z,100953.41
2022-10-06T06:51:07.448Z,100959.78
2022-10-06T06:53:35.097Z,100958.84
2022-10-06T06:56:02.927Z,100969.06
2022-10-06T06:58:30.516Z,100975.59
2022-10-06T07:01:07.328Z,100979.09
2022-10-06T07:03:59.322Z,100975.06
2022-10-06T07:06:27.788Z,100984.25
2022-10-06T07:08:57.152Z,100993.88
2022-10-06T07:11:26.851Z,100986.75
2022-10-06T07:13:55.190Z,100991.59
2022-10-06T07:16:24.690Z,100987.84
2022-10-06T07:18:51.880Z,100998.31
2022-10-06T07:21:19.230Z,101006.09
2022-10-06T07:23:50.777Z,101006.28
2022-10-06T07:26:18.283Z,101010.69
2022-10-06T07:28:45.927Z,101012.94
2022-10-06T07:31:13.616Z,101009.97
2022-10-06T07:33:42.756Z,101016.47
2022-10-06T07:36:10.419Z,101017.97
2022-10-06T07:38:37.752Z,101020.66
2022-10-06T07:41:18.837Z,101026.44
2022-10-06T07:43:47.358Z,101023.81
2022-10-06T07:46:14.947Z,101034.28
2022-10-06T07:48:43.648Z,101034.53
2022-10-06T07:51:14.074Z,101041.66
2022-10-06T07:53:41.419Z,101045.22
2022-10-06T07:56:08.999Z,101057.22
2022-10-06T07:58:36.943Z,101055.31
2022-10-06T08:01:08.972Z,101065.16
2022-10-06T08:03:37.566Z,101069.75
2022-10-06T08:06:07.631Z,101058.25
2022-10-06T08:08:35.094Z,101072.13
2022-10-06T08:11:02.602Z,101079.06
2022-10-06T08:13:30.913Z,101084.50
2022-10-06T08:16:04.698Z,101093.72
2022-10-06T08:18:48.217Z,101095.88
2022-10-06T08:21:18.817Z,101098.53
2022-10-06T08:23:47.830Z,101097.81
2022-10-06T08:26:17.413Z,101100.59
2022-10-06T08:28:45.736Z,101106.50
2022-10-06T08:31:14.545Z,101103.31
2022-10-06T08:33:42.534Z,101114.06
2022-10-06T08:36:12.329Z,101112.81
2022-10-06T08:38:41.738Z,101112.38
2022-10-06T08:41:21.205Z,101127.53
2022-10-06T08:43:56.111Z,101123.03
2022-10-06T08:46:26.422Z,101129.81
2022-10-06T08:48:54.135Z,101134.25
2022-10-06T08:51:39.629Z,101131.94
2022-10-06T08:54:14.205Z,101138.91
2022-10-06T08:56:53.585Z,101134.47
2022-10-06T08:59:21.637Z,101148.13
2022-10-06T09:01:51.761Z,101146.84
2022-10-06T09:04:23.310Z,101148.53
2022-10-06T09:06:54.456Z,101153.13
2022-10-06T09:09:40.775Z,101161.94
2022-10-06T09:12:16.687Z,101170.31
2022-10-06T09:14:49.639Z,101173.03
2022-10-06T09:17:25.202Z,101178.47
2022-10-06T09:19:58.084Z,101185.38
2022-10-06T09:22:31.212Z,101189.06
2022-10-06T09:25:14.110Z,101191.41
2022-10-06T09:27:43.596Z,101192.56
2022-10-06T09:30:12.811Z,101191.88
2022-10-06T09:32:46.141Z,101197.97
2022-10-06T09:35:18.636Z,101205.94
2022-10-06T09:37:54.690Z,101208.88
2022-10-06T09:40:39.807Z,101210.97
2022-10-06T09:43:24.600Z,101212.69
2022-10-06T09:45:52.127Z,101224.38
2022-10-06T09:48:24.671Z,101232.97
2022-10-06T09:51:12.383Z,101234.19
2022-10-06T09:53:40.539Z,101239.47
2022-10-06T09:56:18.524Z,101238.91
2022-10-06T09:58:55.564Z,101240.59
2022-10-06T10:01:24.869Z,101248.75
2022-10-06T10:04:18.734Z,101258.81
2022-10-06T10:06:42.204Z,101262.28
2022-10-06T10:09:26.086Z,101277.00
2022-10-06T10:12:12.229Z,101287.53
2022-10-06T10:14:39.949Z,101284.28
2022-10-06T10:17:10.907Z,101290.41
2022-10-06T10:19:39.475Z,101288.34
2022-10-06T10:22:17.952Z,101294.28
2022-10-06T10:24:53.995Z,101303.69
2022-10-06T10:27:31.955Z,101302.38
2022-10-06T10:30:07.890Z,101295.13
2022-10-06T10:32:57.149Z,101313.72
2022-10-06T10:35:27.801Z,101318.16
2022-10-06T10:38:01.362Z,101320.84
2022-10-06T10:40:37.461Z,101317.13
2022-10-06T10:43:14.718Z,101320.50
2022-10-06T10:45:46.125Z,101332.66
2022-10-06T10:48:16.333Z,101333.34
2022-10-06T10:50:57.332Z,101338.00
2022-10-06T10:53:32.522Z,101345.03
2022-10-06T10:56:01.693Z,101350.78
2022-10-06T10:58:35.529Z,101360.19
2022-10-06T11:01:18.079Z,101354.56
2022-10-06T11:03:48.946Z,101361.03
2022-10-06T11:06:40.285Z,101358.22
2022-10-06T11:09:12.022Z,101360.84
2022-10-06T11:11:52.490Z,101361.03
2022-10-06T11:14:33.801Z,101367.78
2022-10-06T11:17:09.010Z,101362.22
2022-10-06T11:19:45.216Z,101381.47
2022-10-06T11:22:19.237Z,101378.38
2022-10-06T11:25:01.467Z,101376.88
2022-10-06T11:27:42.327Z,101381.88
2022-10-06T11:30:15.624Z,101377.06
2022-10-06T11:32:53.287Z,101375.66
2022-10-06T11:35:23.534Z,101375.44
2022-10-06T11:37:55.990Z,101358.44
2022-10-06T11:40:36.896Z,101353.53
2022-10-06T11:43:13.299Z,101361.69
2022-10-06T11:45:52.165Z,101359.31
2022-10-06T11:48:24.914Z,101358.06
2022-10-06T11:50:53.242Z,101361.25
2022-10-06T11:53:41.687Z,101360.44
2022-10-06T11:56:28.172Z,101360.44
2022-10-06T11:59:29.233Z,101375.78
2022-10-06T12:02:00.039Z,101367.53
2022-10-06T12:04:27.812Z,101366.38
2022-10-06T12:06:59.806Z,101369.63
2022-10-06T12:09:28.889Z,101377.75
2022-10-06T12:11:58.512Z,101386.50
2022-10-06T12:17:34.153Z,101386.44
2022-10-06T12:20:13.415Z,101398.59
2022-10-06T12:22:47.564Z,101390.78
2022-10-06T12:25:22.827Z,101395.97
2022-10-06T12:28:06.569Z,101400.44
2022-10-06T12:30:48.207Z,101401.25
2022-10-06T12:33:19.651Z,101394.41
2022-10-06T12:35:46.985Z,101398.25
2022-10-06T12:38:42.385Z,101404.72
2022-10-06T12:41:11.030Z,101403.41
2022-10-06T12:43:53.259Z,101406.16
2022-10-06T12:46:43.751Z,101395.56
2022-10-06T12:49:43.673Z,101404.41
2022-10-06T12:52:28.836Z,101404.59
2022-10-06T12:55:06.394Z,101419.25
2022-10-06T12:57:45.379Z,101411.09
2022-10-06T13:02:56.254Z,101401.59
2022-10-06T13:05:25.315Z,101410.44
2022-10-06T13:07:57.112Z,101412.25
2022-10-06T13:10:25.018Z,101421.66
2022-10-06T13:12:52.402Z,101417.25
2022-10-06T13:15:22.528Z,101421.69
2022-10-06T13:17:53.054Z,101420.88
2022-10-06T13:20:34.044Z,101423.66
2022-10-06T13:23:07.538Z,101418.63
2022-10-06T13:25:43.731Z,101423.09
2022-10-06T13:28:27.843Z,101430.41
2022-10-06T13:30:57.913Z,101434.66
2022-10-06T13:33:28.896Z,101428.31
2022-10-06T13:35:58.220Z,101433.16
2022-10-06T13:38:25.895Z,101430.00
2022-10-06T13:41:05.145Z,101428.13
2022-10-06T13:43:39.741Z,101435.47
2022-10-06T13:46:09.638Z,101421.38
2022-10-06T13:48:42.385Z,101431.50
2022-10-06T13:51:16.529Z,101434.44
2022-10-06T13:53:45.520Z,101431.09
2022-10-06T13:56:36.358Z,101433.19
2022-10-06T13:59:29.085Z,101430.84
2022-10-06T14:01:58.147Z,101434.22
2022-10-06T14:04:25.731Z,101429.41
2022-10-06T14:06:58.151Z,101438.63
2022-10-06T14:09:29.756Z,101438.03
2022-10-06T14:12:03.885Z,101436.94
2022-10-06T14:14:31.927Z,101438.78
2022-10-06T14:16:59.460Z,101446.34
2022-10-06T14:19:32.124Z,101446.38
2022-10-06T14:22:01.156Z,101450.38
2022-10-06T14:24:29.122Z,101449.97
2022-10-06T14:27:01.559Z,101439.44
2022-10-06T14:29:29.060Z,101446.19
2022-10-06T14:32:07.766Z,101452.69
2022-10-06T14:34:35.968Z,101445.97
2022-10-06T14:37:05.398Z,101452.16
2022-10-06T14:39:32.737Z,101457.25
2022-10-06T14:42:00.087Z,101452.16
2022-10-06T14:44:27.672Z,101448.72
2022-10-06T14:46:55.002Z,101450.13
2022-10-06T14:49:22.245Z,101450.25
2022-10-06T14:51:49.840Z,101453.59
2022-10-06T14:54:18.417Z,101453.59
2022-10-06T14:56:45.700Z,101462.00
2022-10-06T14:59:13.559Z,101458.78
2022-10-06T15:01:40.837Z,101458.44
2022-10-06T15:04:10.084Z,101463.28
2022-10-06T15:06:38.205Z,101466.69
2022-10-06T15:09:05.956Z,101456.97
2022-10-06T15:11:37.640Z,101460.50
2022-10-06T15:14:06.155Z,101455.25
2022-10-06T15:16:36.805Z,101455.44
2022-10-06T15:19:04.231Z,101456.88
2022-10-06T15:21:32.156Z,101460.78
2022-10-06T15:24:01.089Z,101462.00
2022-10-06T15:26:28.756Z,101466.03
2022-10-06T15:28:57.746Z,101465.25
2022-10-06T15:31:25.347Z,101462.66
2022-10-06T15:33:53.297Z,101464.78
2022-10-06T15:36:22.886Z,101458.75
2022-10-06T15:38:50.768Z,101466.75
2022-10-06T15:41:18.700Z,101475.53
2022-10-06T15:43:46.324Z,101476.63
2022-10-06T15:46:15.139Z,101476.41
2022-10-06T15:48:42.832Z,101482.13
2022-10-06T15:51:10.526Z,101481.34
2022-10-06T15:53:37.782Z,101489.50
2022-10-06T15:56:06.023Z,101487.63
2022-10-06T15:58:33.394Z,101480.28
2022-10-06T16:01:00.986Z,101485.34
2022-10-06T16:03:29.780Z,101489.63
2022-10-06T16:05:57.072Z,101485.84
2022-10-06T16:08:25.566Z,101490.63
2022-10-06T16:10:52.796Z,101484.47
2022-10-06T16:13:20.186Z,101494.00
2022-10-06T16:15:52.882Z,101496.72
2022-10-06T16:18:19.920Z,101509.28
2022-10-06T16:20:53.651Z,101495.59
2022-10-06T16:23:22.296Z,101507.50
2022-10-06T16:25:50.445Z,101505.97
2022-10-06T16:28:17.872Z,101505.59
2022-10-06T16:30:54.706Z,101511.53
2022-10-06T16:33:24.337Z,101515.56
2022-10-06T16:35:57.159Z,101519.63
2022-10-06T16:38:24.643Z,101514.91
2022-10-06T16:40:55.097Z,101513.31
2022-10-06T16:43:23.198Z,101519.78
2022-10-06T16:46:01.953Z,101525.22
2022-10-06T16:48:31.029Z,101535.25
2022-10-06T16:51:08.684Z,101527.09
2022-10-06T16:53:37.873Z,101532.34
2022-10-06T16:56:07.490Z,101535.88
2022-10-06T16:58:39.243Z,101539.94
2022-10-06T17:01:08.360Z,101548.66
2022-10-06T17:03:36.202Z,101556.50
2022-10-06T17:06:11.379Z,101555.72
2022-10-06T17:08:41.250Z,101552.63
2022-10-06T17:11:12.288Z,101547.81
2022-10-06T17:13:43.989Z,101551.31
2022-10-06T17:16:14.076Z,101558.28
2022-10-06T17:18:42.375Z,101562.34
2022-10-06T17:21:39.658Z,101566.72
2022-10-06T17:24:01.455Z,101568.91
2022-10-06T17:26:30.039Z,101565.00
2022-10-06T17:28:59.392Z,101564.94
2022-10-06T17:31:30.869Z,101581.00
2022-10-06T17:33:59.104Z,101570.47
2022-10-06T17:36:28.038Z,101573.53
2022-10-06T17:38:57.842Z,101571.66
2022-10-06T17:41:27.159Z,101572.66
2022-10-06T17:43:55.162Z,101574.69
2022-10-06T17:46:23.175Z,101577.75
2022-10-06T17:48:52.611Z,101575.91
2022-10-06T17:51:21.482Z,101578.94
2022-10-06T17:53:52.357Z,101577.94
2022-10-06T17:56:21.199Z,101582.63
2022-10-06T17:58:52.713Z,101581.41
2022-10-06T18:01:21.779Z,101570.81
2022-10-06T18:03:49.834Z,101578.91
2022-10-06T18:06:17.944Z,101580.91
2022-10-06T18:08:46.546Z,101581.50
2022-10-06T18:11:18.063Z,101593.44
2022-10-06T18:13:46.771Z,101593.88
2022-10-06T18:16:16.212Z,101592.47
2022-10-06T18:18:48.176Z,101581.25
2022-10-06T18:21:15.815Z,101586.38
2022-10-06T18:23:43.173Z,101591.13
2022-10-06T18:26:12.222Z,101590.44
2022-10-06T18:28:41.021Z,101594.19
2022-10-06T18:31:08.798Z,101589.47
2022-10-06T18:36:24.298Z,101603.66
2022-10-06T18:38:51.994Z,101598.72
2022-10-06T18:41:20.201Z,101599.72
2022-10-06T18:43:49.325Z,101600.28
2022-10-06T18:46:18.799Z,101599.84
2022-10-06T18:48:46.265Z,101598.13
2022-10-06T18:51:13.593Z,101602.22
2022-10-06T18:53:41.379Z,101609.34
2022-10-06T18:56:08.552Z,101622.97
2022-10-06T18:58:38.206Z,101605.13
2022-10-06T19:01:08.152Z,101610.22
2022-10-06T19:03:35.504Z,101606.38
2022-10-06T19:06:03.263Z,101614.47
2022-10-06T19:08:31.451Z,101623.53
2022-10-06T19:11:02.450Z,101617.97
2022-10-06T19:13:30.063Z,101621.84
2022-10-06T19:15:57.684Z,101622.09
2022-10-06T19:18:33.362Z,101614.84
2022-10-06T19:21:07.242Z,101625.84
2022-10-06T19:23:38.191Z,101624.84
2022-10-06T19:26:07.553Z,101626.59
2022-10-06T19:28:35.077Z,101626.03
2022-10-06T19:31:05.299Z,101635.25
2022-10-06T19:33:33.939Z,101634.22
2022-10-06T19:36:01.200Z,101640.78
2022-10-06T19:38:28.952Z,101635.09
2022-10-06T19:40:56.352Z,101638.91
2022-10-06T19:43:23.913Z,101643.53
2022-10-06T19:45:56.991Z,101645.41
2022-10-06T19:48:24.295Z,101643.81
2022-10-06T19:50:53.087Z,101647.47
2022-10-06T19:53:20.673Z,101646.47
2022-10-06T19:55:47.937Z,101645.38
2022-10-06T19:58:15.570Z,101646.44
2022-10-06T20:00:43.147Z,101650.69
2022-10-06T20:03:10.381Z,101650.75
2022-10-06T20:05:37.588Z,101651.69
2022-10-06T20:08:06.514Z,101660.00
2022-10-06T20:10:33.797Z,101659.22
2022-10-06T20:13:01.093Z,101654.31
2022-10-06T20:15:28.719Z,101655.00
2022-10-06T20:17:55.987Z,101653.94
2022-10-06T20:20:23.356Z,101656.34
2022-10-06T20:22:51.102Z,101663.50
2022-10-06T20:25:20.168Z,101652.59
2022-10-06T20:27:47.482Z,101657.00
2022-10-06T20:30:15.321Z,101657.22
2022-10-06T20:32:42.575Z,101662.38
2022-10-06T20:35:09.850Z,101664.00
2022-10-06T20:37:37.363Z,101666.13
2022-10-06T20:40:05.696Z,101669.47
2022-10-06T20:42:34.436Z,101665.19
2022-10-06T20:45:02.103Z,101666.25
2022-10-06T20:47:29.441Z,101669.25
2022-10-06T20:49:56.972Z,101659.88
2022-10-06T20:52:24.412Z,101662.50
2022-10-06T20:54:51.886Z,101657.38
2022-10-06T20:57:19.490Z,101663.72
2022-10-06T20:59:48.365Z,101658.84
2022-10-06T21:02:15.554Z,101662.91
2022-10-06T21:04:43.084Z,101657.72
2022-10-06T21:07:10.568Z,101655.69
2022-10-06T21:09:38.118Z,101658.03
2022-10-06T21:12:05.829Z,101661.81
2022-10-06T21:14:33.077Z,101659.19
2022-10-06T21:17:01.825Z,101659.19
2022-10-06T21:19:29.716Z,101660.81
2022-10-06T21:21:57.100Z,101667.78
2022-10-06T21:24:24.370Z,101659.69
2022-10-06T21:26:52.203Z,101662.88
2022-10-06T21:29:19.723Z,101665.34
2022-10-06T21:31:47.177Z,101662.31
2022-10-06T21:34:16.188Z,101658.78
2022-10-06T21:36:43.603Z,101659.97
2022-10-06T21:39:12.326Z,101655.38
2022-10-06T21:41:41.278Z,101655.13
2022-10-06T21:44:10.247Z,101665.72
2022-10-06T21:46:39.222Z,101674.16
2022-10-06T21:49:09.878Z,101659.97
2022-10-06T21:51:39.568Z,101666.81
2022-10-06T21:54:07.182Z,101668.78
2022-10-06T21:56:34.593Z,101666.31
2022-10-06T21:59:02.135Z,101666.22
2022-10-06T22:04:16.379Z,101664.75
2022-10-06T22:06:46.339Z,101665.72
2022-10-06T22:09:15.936Z,101672.53
2022-10-06T22:11:44.473Z,101670.63
2022-10-06T22:14:14.159Z,101660.97
2022-10-06T22:16:41.587Z,101668.03
2022-10-06T22:19:11.218Z,101668.50
2022-10-06T22:21:40.423Z,101662.75
2022-10-06T22:24:10.505Z,101663.53
2022-10-06T22:26:39.438Z,101666.22
2022-10-06T22:29:08.628Z,101659.19
2022-10-06T22:31:38.523Z,101663.63
2022-10-06T22:34:06.344Z,101651.09
2022-10-06T22:36:34.605Z,101665.94
2022-10-06T22:39:02.484Z,101663.16
2022-10-06T22:41:31.386Z,101663.47
2022-10-06T22:43:59.887Z,101663.53
2022-10-06T22:46:28.928Z,101658.22
2022-10-06T22:48:56.536Z,101651.13
2022-10-06T22:51:24.416Z,101655.00
2022-10-06T22:53:56.686Z,101656.44
2022-10-06T22:56:26.232Z,101645.84
2022-10-06T22:58:55.375Z,101649.88
2022-10-06T23:01:22.535Z,101645.66
2022-10-06T23:03:50.511Z,101650.41
2022-10-06T23:06:18.362Z,101644.75
2022-10-06T23:08:45.730Z,101646.97
2022-10-06T23:11:14.987Z,101645.31
2022-10-06T23:13:43.455Z,101650.91
2022-10-06T23:16:13.987Z,101645.38
2022-10-06T23:18:42.483Z,101651.66
2022-10-06T23:21:11.649Z,101644.75
2022-10-06T23:23:38.943Z,101640.22
2022-10-06T23:26:08.687Z,101645.31
2022-10-06T23:28:36.642Z,101636.31
2022-10-06T23:31:05.098Z,101641.00
2022-10-06T23:33:34.833Z,101649.19
2022-10-06T23:36:04.044Z,101650.06
2022-10-06T23:38:31.629Z,101641.56
2022-10-06T23:40:59.215Z,101646.84
2022-10-06T23:43:26.555Z,101642.94
2022-10-06T23:45:54.032Z,101650.84
2022-10-06T23:48:21.670Z,101651.75
2022-10-06T23:50:58.402Z,101647.41
2022-10-06T23:53:26.475Z,101642.69
2022-10-06T23:55:54.068Z,101643.22
2022-10-06T23:58:21.765Z,101648.19
